Overview Statistics Trail Chart Weather Telemetry Raw packets
 

This is the latest recevied weather packets stored in our database for station/object OE5RBO. If no packets are shown the sender has not sent any weather packets the latest 10 day(s).

<< 41 42 43 44 45 46 47 >>
Time Temp. Humidity Pressure Rain* Wind** Luminosity Snow
1787906373 30° C 67% 1011.3 hPa 0 mm - - -
1787905772 30° C 66% 1011.4 hPa 0 mm - - -
1787905172 30° C 66% 1011.5 hPa 0 mm - - -
1787904571 29.44° C 68% 1011.3 hPa 0 mm - - -
1787903971 28.33° C 69% 1011.3 hPa 0 mm - - -
1787902770 26.67° C 73% 1011.3 hPa 0 mm - - -
1787902170 25.56° C 79% 1011.3 hPa 0 mm - - -
1787901570 24.44° C 80% 1011.3 hPa 0 mm - - -
1787900969 23.33° C 85% 1011.3 hPa 0 mm - - -
1787900369 23.89° C 83% 1011.7 hPa 0 mm - - -
1787899769 23.89° C 82% 1011.8 hPa 0 mm - - -
1787899168 23.33° C 87% 1011.9 hPa 0 mm - - -
1787898568 22.22° C 89% 1012 hPa 0 mm - - -
1787897367 20° C 95% 1012.1 hPa 0 mm - - -
1787896767 19.44° C 95% 1012 hPa 0 mm - - -
1787896167 19.44° C 95% 1012.1 hPa 0 mm - - -
1787894966 18.33° C 97% 1012.1 hPa 0 mm - - -
1787894365 18.33° C 97% 1012 hPa 0 mm - - -
1787893765 17.78° C 97% 1011.9 hPa 0 mm - - -
1787893165 17.22° C 97% 1011.8 hPa 0 mm - - -
1787892564 17.22° C 97% 1011.8 hPa 0 mm - - -
1787891964 17.78° C 97% 1011.7 hPa 0 mm - - -
1787891364 17.78° C 96% 1011.7 hPa 0 mm - - -
1787890763 18.33° C 96% 1011.8 hPa 0 mm - - -
1787889562 18.33° C 96% 1012.2 hPa 0 mm - - -

* Rain since midnight (hover to see other rain measurements)
** Current wind speed in m/s (hover to see current wind gust speed)